Terminal Aerodrome Forecast
Issued by NWS

Home | Current Version | Previous Version | Text Only | Print | Product List | Glossary Off
Versions: 1 2 3 4 5 6 7 8 9 10 11 12 13 14 15 16 17 18 19 20 21 22 23 24 25

000
FTUS43 KBIS 250500
TAFMOT
TAF
KMOT 250537Z 2506/2606 28011KT P6SM SCT008 OVC015
      TEMPO 2506/2510 5SM -SN OVC008
     FM251200 19005KT 1SM BR SCT012
     FM251500 12009KT 4SM -SN OVC012
     FM251800 VRB06KT 3/4SM -SN OVC007
     FM252300 01018G24KT 3SM -SN OVC012=

USA.gov is the U.S. government's official web portal to all federal, state and local government web resources and services.